Time;durP1;ratioP1;P1;durP2;ratioP2;P2;SDS_P1;SDS_P2;PMS_P1;PMS_P2;Temp;Humidity;BMP_temperature;BMP_pressure;BME280_temperature;BME280_humidity;BME280_pressure;Samples;Min_cycle;Max_cycle;Signal;HPM_P1;HPM_P2
2022/09/12 00:01:27;;;;;;;0.40;0.40;;;13.20;99.90;;;;;;5015009;28;20517;-66
2022/09/12 00:04:16;;;;;;;0.40;0.40;;;13.20;99.90;;;;;;5015118;28;20488;-67
2022/09/12 00:07:05;;;;;;;0.40;0.40;;;13.10;99.90;;;;;;5015260;28;20430;-67
2022/09/12 00:09:53;;;;;;;0.40;0.40;;;13.10;99.90;;;;;;5014198;28;20557;-67
2022/09/12 00:12:41;;;;;;;0.40;0.40;;;13.00;99.90;;;;;;5015568;28;20492;-67
2022/09/12 00:15:29;;;;;;;0.40;0.40;;;13.00;99.90;;;;;;5014690;28;20465;-67
2022/09/12 00:18:17;;;;;;;0.40;0.40;;;13.00;99.90;;;;;;5014513;28;20426;-66
2022/09/12 00:21:06;;;;;;;0.40;0.40;;;12.80;99.90;;;;;;5014390;28;20418;-66
2022/09/12 00:23:55;;;;;;;0.40;0.40;;;12.80;99.90;;;;;;5014571;28;20598;-67
2022/09/12 00:26:43;;;;;;;0.40;0.40;;;12.80;99.90;;;;;;5015508;28;20437;-67
2022/09/12 00:29:31;;;;;;;0.40;0.40;;;12.70;99.90;;;;;;5014137;28;20965;-66
2022/09/12 00:32:19;;;;;;;0.40;0.40;;;12.60;99.90;;;;;;5015092;28;20497;-67
2022/09/12 00:35:08;;;;;;;0.40;0.40;;;12.60;99.90;;;;;;5015537;28;21053;-66
2022/09/12 00:37:56;;;;;;;0.40;0.40;;;12.60;99.90;;;;;;5014311;28;20432;-66
2022/09/12 00:40:46;;;;;;;0.40;0.40;;;12.60;99.90;;;;;;5014381;28;21147;-66
2022/09/12 00:43:37;;;;;;;0.40;0.40;;;12.50;99.90;;;;;;5015573;28;20473;-66
2022/09/12 00:46:34;;;;;;;0.40;0.40;;;12.50;99.90;;;;;;5014960;28;20516;-66
2022/09/12 00:49:26;;;;;;;0.50;0.50;;;12.50;99.90;;;;;;5013942;28;20426;-66
2022/09/12 00:52:17;;;;;;;0.40;0.40;;;12.40;99.90;;;;;;5013656;28;20513;-67
2022/09/12 00:55:09;;;;;;;0.40;0.40;;;12.40;99.90;;;;;;5014227;28;20434;-67
2022/09/12 00:58:03;;;;;;;0.40;0.40;;;12.30;99.90;;;;;;5030230;28;20429;-67
2022/09/12 01:00:51;;;;;;;0.40;0.40;;;12.30;99.90;;;;;;5033801;28;20421;-67
2022/09/12 01:03:40;;;;;;;0.40;0.40;;;12.30;99.90;;;;;;5033821;28;20484;-66
2022/09/12 01:06:34;;;;;;;0.50;0.50;;;12.30;99.90;;;;;;5034732;28;20429;-67
2022/09/12 01:09:24;;;;;;;0.50;0.50;;;12.30;99.90;;;;;;5032397;28;20421;-68
2022/09/12 01:12:14;;;;;;;0.40;0.40;;;12.30;99.90;;;;;;5033491;28;20583;-66
2022/09/12 01:15:04;;;;;;;0.40;0.40;;;12.20;99.90;;;;;;5033419;28;20425;-66
2022/09/12 01:18:06;;;;;;;0.40;0.40;;;12.20;99.90;;;;;;5030423;28;20520;-66
2022/09/12 01:21:04;;;;;;;0.40;0.40;;;12.20;99.90;;;;;;5049574;28;20432;-66
2022/09/12 01:24:35;;;;;;;0.40;0.40;;;12.00;99.90;;;;;;5053268;28;20827;-67
2022/09/12 01:27:40;;;;;;;0.40;0.40;;;12.10;99.90;;;;;;5053887;28;20432;-67
2022/09/12 01:30:45;;;;;;;0.40;0.40;;;12.00;99.90;;;;;;5054016;28;20435;-67
2022/09/12 01:33:47;;;;;;;0.40;0.40;;;12.00;99.90;;;;;;5054171;28;20458;-66
2022/09/12 01:36:44;;;;;;;0.40;0.40;;;12.00;99.90;;;;;;5054667;28;20565;-67
2022/09/12 01:39:40;;;;;;;0.40;0.40;;;11.90;99.90;;;;;;5053974;28;20424;-67
2022/09/12 01:42:37;;;;;;;0.40;0.40;;;11.90;99.90;;;;;;5054046;28;20448;-67
2022/09/12 01:45:30;;;;;;;0.40;0.40;;;11.90;99.90;;;;;;5054184;28;20463;-66
2022/09/12 01:48:23;;;;;;;0.40;0.40;;;12.00;99.90;;;;;;5054242;28;20502;-66
2022/09/12 01:51:19;;;;;;;0.40;0.40;;;11.90;99.90;;;;;;5053257;28;20937;-67
2022/09/12 01:54:10;;;;;;;0.40;0.40;;;11.80;99.90;;;;;;5053245;28;20455;-67
2022/09/12 01:57:03;;;;;;;0.40;0.40;;;11.80;99.90;;;;;;5045268;28;20429;-67
2022/09/12 01:59:56;;;;;;;0.40;0.40;;;11.80;99.90;;;;;;5032608;28;20436;-66
2022/09/12 02:02:51;;;;;;;0.40;0.40;;;11.90;99.90;;;;;;5033030;28;20840;-66
2022/09/12 02:05:45;;;;;;;0.40;0.40;;;11.80;99.90;;;;;;5031958;28;20468;-66
2022/09/12 02:08:40;;;;;;;0.40;0.40;;;11.90;99.90;;;;;;5032902;28;20820;-66
2022/09/12 02:11:31;;;;;;;0.43;0.43;;;11.80;99.90;;;;;;5032570;28;20432;-67
2022/09/12 02:14:24;;;;;;;0.40;0.40;;;11.80;99.90;;;;;;5033162;28;20451;-66
2022/09/12 02:17:14;;;;;;;0.40;0.40;;;11.80;99.90;;;;;;5033240;28;20956;-67
2022/09/12 02:20:06;;;;;;;0.40;0.40;;;11.70;99.90;;;;;;5033851;28;20425;-67
2022/09/12 02:22:57;;;;;;;0.40;0.40;;;11.70;99.90;;;;;;5036451;28;20460;-66
2022/09/12 02:25:48;;;;;;;0.40;0.40;;;11.60;99.90;;;;;;5037022;28;21000;-67
2022/09/12 02:28:41;;;;;;;0.40;0.40;;;11.70;99.90;;;;;;5036462;28;20429;-66
2022/09/12 02:31:33;;;;;;;0.40;0.40;;;11.60;99.90;;;;;;5035788;28;20451;-67
2022/09/12 02:34:32;;;;;;;0.40;0.40;;;11.60;99.90;;;;;;5037407;28;20520;-66
2022/09/12 02:37:26;;;;;;;0.40;0.40;;;11.50;99.90;;;;;;5036671;28;20431;-67
2022/09/12 02:40:15;;;;;;;0.40;0.40;;;11.50;99.90;;;;;;5036138;28;20444;-66
2022/09/12 02:43:06;;;;;;;0.40;0.40;;;11.50;99.90;;;;;;5037202;28;20558;-67
2022/09/12 02:45:54;;;;;;;0.40;0.40;;;11.60;99.90;;;;;;5036184;28;20560;-67
2022/09/12 02:48:43;;;;;;;0.40;0.40;;;11.60;99.90;;;;;;5036432;28;20490;-67
2022/09/12 02:51:32;;;;;;;0.40;0.40;;;11.60;99.90;;;;;;5035878;28;20421;-67
2022/09/12 02:54:21;;;;;;;0.40;0.40;;;11.70;99.90;;;;;;5035678;28;20600;-67
2022/09/12 02:57:17;;;;;;;0.40;0.40;;;11.50;99.90;;;;;;5035720;28;20424;-67
2022/09/12 03:00:11;;;;;;;0.40;0.40;;;11.50;99.90;;;;;;5036512;28;20436;-68
2022/09/12 03:03:17;;;;;;;0.40;0.40;;;11.40;99.90;;;;;;5037030;28;20465;-68
2022/09/12 03:06:16;;;;;;;0.40;0.40;;;11.30;99.90;;;;;;5035414;28;20965;-66
2022/09/12 03:09:11;;;;;;;0.43;0.43;;;11.30;99.90;;;;;;5035651;28;20433;-67
2022/09/12 03:12:10;;;;;;;0.40;0.40;;;11.30;99.90;;;;;;5036276;28;20417;-66
2022/09/12 03:15:12;;;;;;;0.40;0.40;;;11.20;99.90;;;;;;5035884;28;20508;-67
2022/09/12 03:18:19;;;;;;;0.40;0.40;;;11.20;99.90;;;;;;5035283;28;20441;-67
2022/09/12 03:21:13;;;;;;;0.40;0.40;;;11.20;99.90;;;;;;5036011;28;20428;-66
2022/09/12 03:24:12;;;;;;;0.40;0.40;;;11.10;99.90;;;;;;5036198;28;20444;-67
2022/09/12 03:27:08;;;;;;;0.40;0.40;;;11.10;99.90;;;;;;5035290;28;20791;-66
2022/09/12 03:29:57;;;;;;;0.40;0.40;;;11.10;99.90;;;;;;5035150;28;20433;-67
2022/09/12 03:32:49;;;;;;;0.40;0.40;;;11.20;99.90;;;;;;5034908;28;20954;-67
2022/09/12 03:35:37;;;;;;;0.40;0.40;;;11.00;99.90;;;;;;5035222;28;20972;-67
2022/09/12 03:38:25;;;;;;;0.50;0.50;;;11.00;99.90;;;;;;5035516;28;20808;-66
2022/09/12 03:41:13;;;;;;;0.50;0.50;;;11.00;99.90;;;;;;5034348;28;20496;-67
2022/09/12 03:44:01;;;;;;;0.40;0.40;;;11.00;99.90;;;;;;5034381;28;20455;-67
2022/09/12 03:46:50;;;;;;;0.40;0.40;;;10.90;99.90;;;;;;5035297;28;20422;-67
2022/09/12 03:49:39;;;;;;;0.40;0.40;;;11.00;99.90;;;;;;5034616;28;20421;-67
2022/09/12 03:52:27;;;;;;;0.40;0.40;;;10.90;99.90;;;;;;5035550;28;20937;-67
2022/09/12 03:55:16;;;;;;;0.40;0.40;;;10.80;99.90;;;;;;5034724;28;20436;-67
2022/09/12 03:58:04;;;;;;;0.40;0.40;;;10.80;99.90;;;;;;5035372;28;20444;-67
2022/09/12 04:00:52;;;;;;;0.40;0.40;;;10.80;99.90;;;;;;5034063;28;20937;-67
2022/09/12 04:03:41;;;;;;;0.40;0.40;;;10.80;99.90;;;;;;5033607;28;20468;-67
2022/09/12 04:06:30;;;;;;;0.40;0.40;;;10.90;99.90;;;;;;5035369;28;20460;-67
2022/09/12 04:09:18;;;;;;;0.50;0.50;;;10.80;99.90;;;;;;5033078;28;20916;-67
2022/09/12 04:12:07;;;;;;;0.40;0.40;;;10.70;99.90;;;;;;5034076;28;20421;-67
2022/09/12 04:14:55;;;;;;;0.40;0.40;;;10.60;99.90;;;;;;5033879;28;21012;-66
2022/09/12 04:17:43;;;;;;;0.40;0.40;;;10.70;99.90;;;;;;5033278;28;20427;-68
2022/09/12 04:20:31;;;;;;;0.40;0.40;;;10.70;99.90;;;;;;5033124;28;20432;-68
2022/09/12 04:23:20;;;;;;;0.40;0.40;;;10.70;99.90;;;;;;5033460;28;20495;-68
2022/09/12 04:26:09;;;;;;;0.40;0.40;;;10.70;99.90;;;;;;5033455;28;20472;-67
2022/09/12 04:28:57;;;;;;;0.40;0.40;;;10.60;99.90;;;;;;5033426;28;20516;-67
2022/09/12 04:31:45;;;;;;;0.40;0.40;;;10.50;99.90;;;;;;5033137;28;20432;-68
2022/09/12 04:34:33;;;;;;;0.40;0.40;;;10.60;99.90;;;;;;5032921;28;20799;-67
2022/09/12 04:37:23;;;;;;;0.40;0.40;;;10.60;99.90;;;;;;5033293;28;20796;-68
2022/09/12 04:40:12;;;;;;;0.40;0.40;;;10.60;99.90;;;;;;5032864;28;20801;-67
2022/09/12 04:43:00;;;;;;;0.40;0.40;;;10.60;99.90;;;;;;5033242;28;20449;-66
2022/09/12 04:45:48;;;;;;;0.40;0.40;;;10.60;99.90;;;;;;5033140;28;20460;-67
2022/09/12 04:48:37;;;;;;;0.40;0.40;;;10.50;99.90;;;;;;5033061;28;20425;-67
2022/09/12 04:51:27;;;;;;;0.40;0.40;;;10.60;99.90;;;;;;5033133;28;20818;-67
2022/09/12 04:54:18;;;;;;;0.40;0.40;;;10.60;99.90;;;;;;5032903;28;20449;-67
2022/09/12 04:57:07;;;;;;;0.40;0.40;;;10.60;99.90;;;;;;5033088;28;20432;-67
2022/09/12 04:59:55;;;;;;;0.40;0.40;;;10.70;99.90;;;;;;5033861;28;20437;-67
2022/09/12 05:02:44;;;;;;;0.40;0.40;;;10.80;99.90;;;;;;5033603;28;20827;-67
2022/09/12 05:05:32;;;;;;;0.50;0.50;;;10.60;99.90;;;;;;5033187;28;20460;-67
2022/09/12 05:08:20;;;;;;;0.40;0.40;;;10.60;99.90;;;;;;5033228;28;20425;-67
2022/09/12 05:11:11;;;;;;;0.40;0.40;;;10.70;99.90;;;;;;5032984;28;21003;-67
2022/09/12 05:14:00;;;;;;;0.40;0.40;;;10.80;99.90;;;;;;5032714;28;20826;-67
2022/09/12 05:16:49;;;;;;;0.40;0.40;;;10.80;99.90;;;;;;5032773;28;20421;-67
2022/09/12 05:19:38;;;;;;;0.40;0.40;;;10.80;99.90;;;;;;5033308;28;20564;-67
2022/09/12 05:22:26;;;;;;;0.40;0.40;;;10.90;99.90;;;;;;5034005;28;20821;-67
2022/09/12 05:25:14;;;;;;;0.40;0.40;;;10.90;99.90;;;;;;5033481;28;20425;-68
2022/09/12 05:28:02;;;;;;;0.40;0.40;;;11.00;99.90;;;;;;5033063;28;20508;-68
2022/09/12 05:31:02;;;;;;;0.40;0.40;;;11.00;99.90;;;;;;5032942;28;20937;-66
2022/09/12 05:33:51;;;;;;;0.40;0.40;;;11.00;99.90;;;;;;5033718;28;20992;-67
2022/09/12 05:36:40;;;;;;;0.40;0.40;;;11.00;99.90;;;;;;5034243;28;20926;-67
2022/09/12 05:39:28;;;;;;;0.40;0.40;;;11.10;99.90;;;;;;5034068;28;20429;-68
2022/09/12 05:42:16;;;;;;;0.40;0.40;;;11.20;99.90;;;;;;5034204;28;20425;-67
2022/09/12 05:45:04;;;;;;;0.40;0.40;;;11.40;99.90;;;;;;5033753;28;20425;-67
2022/09/12 05:47:54;;;;;;;0.40;0.40;;;11.40;99.90;;;;;;5044213;28;20435;-67
2022/09/12 05:50:42;;;;;;;0.40;0.40;;;11.50;99.90;;;;;;5048885;28;20431;-66
2022/09/12 05:53:31;;;;;;;0.40;0.40;;;11.60;99.90;;;;;;5053328;28;20519;-68
2022/09/12 05:56:21;;;;;;;0.40;0.40;;;11.70;99.90;;;;;;5055146;28;20424;-67
2022/09/12 05:59:13;;;;;;;0.40;0.40;;;11.70;99.90;;;;;;5036404;28;20631;-69
2022/09/12 06:02:01;;;;;;;0.40;0.40;;;11.80;99.90;;;;;;5035330;28;20503;-67
2022/09/12 06:04:50;;;;;;;0.40;0.40;;;11.90;99.90;;;;;;5037266;28;20491;-66
2022/09/12 06:07:38;;;;;;;0.40;0.40;;;12.00;99.90;;;;;;5038236;28;20469;-67
2022/09/12 06:10:27;;;;;;;0.40;0.40;;;12.00;99.90;;;;;;5038536;28;20440;-67
2022/09/12 06:13:15;;;;;;;0.40;0.40;;;12.10;99.90;;;;;;5038247;28;20444;-67
2022/09/12 06:16:05;;;;;;;0.50;0.50;;;12.20;99.90;;;;;;5037207;28;20421;-66
2022/09/12 06:18:55;;;;;;;0.40;0.40;;;12.20;99.90;;;;;;5037981;28;20417;-67
2022/09/12 06:21:45;;;;;;;0.40;0.40;;;12.30;99.90;;;;;;5042042;28;20945;-67
2022/09/12 06:24:33;;;;;;;0.40;0.40;;;12.40;99.90;;;;;;5022460;28;20429;-67
2022/09/12 06:27:21;;;;;;;0.40;0.40;;;12.40;99.90;;;;;;5020355;28;20471;-66
2022/09/12 06:30:10;;;;;;;0.40;0.40;;;12.50;99.90;;;;;;5023096;28;20521;-67
2022/09/12 06:32:58;;;;;;;1.60;1.20;;;12.60;99.90;;;;;;5017689;28;20532;-66
2022/09/12 06:35:46;;;;;;;0.40;0.40;;;12.60;99.90;;;;;;5018342;28;20966;-67
2022/09/12 06:38:36;;;;;;;0.40;0.40;;;12.60;99.90;;;;;;5016735;28;21025;-67
2022/09/12 06:41:25;;;;;;;0.40;0.40;;;12.70;99.90;;;;;;5016525;28;20943;-67
2022/09/12 06:44:15;;;;;;;0.40;0.40;;;12.70;99.90;;;;;;5017027;28;20460;-67
2022/09/12 06:47:03;;;;;;;0.40;0.40;;;12.80;99.90;;;;;;5016594;28;20849;-67
2022/09/12 06:49:51;;;;;;;0.40;0.40;;;12.90;99.90;;;;;;5018145;28;20430;-67
2022/09/12 06:52:39;;;;;;;0.40;0.40;;;13.00;99.90;;;;;;5035330;28;20443;-68
2022/09/12 06:55:29;;;;;;;0.40;0.40;;;13.00;99.90;;;;;;5035883;28;20447;-67
2022/09/12 06:58:17;;;;;;;0.40;0.40;;;13.00;99.90;;;;;;5034369;28;20425;-67
2022/09/12 07:01:08;;;;;;;0.40;0.40;;;13.30;99.90;;;;;;5034851;28;20422;-68
2022/09/12 07:03:58;;;;;;;0.40;0.40;;;13.20;99.90;;;;;;5034470;28;20464;-68
2022/09/12 07:06:47;;;;;;;0.40;0.40;;;13.30;99.90;;;;;;5033550;28;20846;-71
2022/09/12 07:09:35;;;;;;;0.50;0.50;;;13.50;99.90;;;;;;5030179;28;20962;-68
2022/09/12 07:12:24;;;;;;;0.40;0.40;;;13.50;99.90;;;;;;5053339;28;20431;-68
2022/09/12 07:15:12;;;;;;;0.40;0.40;;;13.60;99.90;;;;;;5046655;28;20460;-70
2022/09/12 07:18:00;;;;;;;0.40;0.40;;;13.50;99.90;;;;;;5022715;28;20483;-71
2022/09/12 07:20:48;;;;;;;0.40;0.40;;;13.70;99.90;;;;;;5032994;28;20429;-69
2022/09/12 07:23:36;;;;;;;0.70;0.70;;;13.70;99.90;;;;;;5013196;28;20437;-68
2022/09/12 07:26:27;;;;;;;0.40;0.40;;;13.80;99.90;;;;;;5012895;28;20430;-71
2022/09/12 07:29:17;;;;;;;0.40;0.40;;;13.90;99.90;;;;;;5012518;28;20448;-69
2022/09/12 07:32:23;;;;;;;0.40;0.40;;;14.00;99.90;;;;;;5013177;28;20525;-70
2022/09/12 07:35:12;;;;;;;0.90;0.90;;;14.00;99.90;;;;;;5012267;28;20440;-70
2022/09/12 07:38:00;;;;;;;0.40;0.40;;;14.10;99.90;;;;;;5012774;28;20423;-69
2022/09/12 07:40:48;;;;;;;0.40;0.40;;;14.20;99.90;;;;;;5012775;28;20430;-70
2022/09/12 07:43:36;;;;;;;0.40;0.40;;;14.30;99.90;;;;;;5030921;28;20460;-70
2022/09/12 07:46:27;;;;;;;0.40;0.40;;;14.40;99.90;;;;;;5030822;28;20471;-67
2022/09/12 07:49:15;;;;;;;0.40;0.40;;;14.50;99.90;;;;;;5029238;28;20420;-70
2022/09/12 07:52:03;;;;;;;0.40;0.40;;;14.50;99.90;;;;;;5033613;28;20416;-69
2022/09/12 07:54:51;;;;;;;0.40;0.40;;;14.50;99.90;;;;;;5032944;28;20425;-68
2022/09/12 07:57:39;;;;;;;0.43;0.43;;;14.60;99.90;;;;;;5032586;28;20508;-70
2022/09/12 08:00:34;;;;;;;0.40;0.40;;;14.80;99.90;;;;;;5032981;28;20452;-68
2022/09/12 08:03:23;;;;;;;1.60;1.30;;;14.80;99.90;;;;;;5033201;28;20463;-71
2022/09/12 08:06:14;;;;;;;0.60;0.60;;;15.10;99.90;;;;;;5023260;28;20425;-70
2022/09/12 08:09:03;;;;;;;0.47;0.47;;;15.10;99.90;;;;;;5028408;28;20508;-71
2022/09/12 08:11:51;;;;;;;0.50;0.50;;;15.20;99.90;;;;;;5029252;28;20437;-67
2022/09/12 08:14:39;;;;;;;0.50;0.50;;;15.30;99.90;;;;;;5023932;28;20414;-69
2022/09/12 08:17:28;;;;;;;0.40;0.40;;;15.40;99.90;;;;;;5031675;28;20498;-68
2022/09/12 08:20:17;;;;;;;0.40;0.40;;;15.50;99.90;;;;;;5032350;28;20774;-67
2022/09/12 08:23:06;;;;;;;0.40;0.40;;;15.60;99.90;;;;;;5023943;28;20826;-68
2022/09/12 08:25:56;;;;;;;0.40;0.40;;;15.60;99.90;;;;;;5022895;28;20803;-67
2022/09/12 08:28:45;;;;;;;0.40;0.40;;;15.80;99.90;;;;;;5021780;28;20236;-68
2022/09/12 08:31:35;;;;;;;0.40;0.40;;;15.80;99.90;;;;;;5023540;28;20269;-68
2022/09/12 08:34:24;;;;;;;0.70;0.70;;;16.00;99.90;;;;;;5012941;28;20695;-69
2022/09/12 08:37:14;;;;;;;0.50;0.50;;;15.90;99.90;;;;;;5022396;28;20415;-68
2022/09/12 08:40:05;;;;;;;0.93;0.93;;;16.00;99.90;;;;;;5022803;28;20934;-68
2022/09/12 08:43:02;;;;;;;0.40;0.40;;;16.10;99.90;;;;;;5017841;28;20442;-68
2022/09/12 08:45:59;;;;;;;1.20;1.17;;;16.10;99.90;;;;;;5012774;28;20436;-68
2022/09/12 08:48:48;;;;;;;0.50;0.50;;;14.70;99.90;;;;;;5023311;28;21284;-68
2022/09/12 08:51:36;;;;;;;0.40;0.40;;;16.20;99.90;;;;;;5031726;28;20429;-68
2022/09/12 08:54:29;;;;;;;0.40;0.40;;;16.30;99.90;;;;;;5021798;28;20446;-69
2022/09/12 08:57:17;;;;;;;0.80;0.73;;;16.40;99.90;;;;;;5023358;28;20714;-67
2022/09/12 09:00:12;;;;;;;0.40;0.40;;;16.50;99.90;;;;;;5021380;28;20421;-69
2022/09/12 09:03:25;;;;;;;0.40;0.40;;;16.60;99.90;;;;;;5011720;28;20537;-67
2022/09/12 09:06:25;;;;;;;0.40;0.40;;;16.60;99.90;;;;;;5020366;28;20645;-67
2022/09/12 09:09:21;;;;;;;0.47;0.47;;;16.70;99.90;;;;;;5031624;28;20230;-68
2022/09/12 09:12:20;;;;;;;0.40;0.40;;;16.40;99.90;;;;;;5040524;28;20202;-66
2022/09/12 09:15:26;;;;;;;0.40;0.40;;;16.50;99.90;;;;;;5030488;28;20594;-68
2022/09/12 09:18:19;;;;;;;0.50;0.50;;;16.50;99.90;;;;;;5030028;28;20872;-70
2022/09/12 09:21:19;;;;;;;0.40;0.40;;;16.60;99.90;;;;;;5027441;28;20201;-67
2022/09/12 09:24:11;;;;;;;0.40;0.40;;;16.70;99.90;;;;;;5021939;28;20221;-70
2022/09/12 09:27:04;;;;;;;0.40;0.40;;;16.80;99.90;;;;;;5021816;28;20197;-68
2022/09/12 09:30:14;;;;;;;0.40;0.40;;;16.90;99.90;;;;;;5021616;28;20606;-71
2022/09/12 09:33:04;;;;;;;0.40;0.40;;;17.10;99.90;;;;;;5024027;28;20222;-69
2022/09/12 09:36:00;;;;;;;0.40;0.40;;;17.10;99.90;;;;;;5030323;28;20197;-72
2022/09/12 09:38:50;;;;;;;0.40;0.40;;;17.20;99.90;;;;;;5029744;28;20223;-68
2022/09/12 09:41:52;;;;;;;0.40;0.40;;;17.30;99.90;;;;;;5019989;28;20199;-67
2022/09/12 09:44:40;;;;;;;0.40;0.40;;;17.50;99.90;;;;;;5021053;28;20273;-69
2022/09/12 09:47:30;;;;;;;0.40;0.40;;;17.30;99.90;;;;;;5021521;28;20610;-69
2022/09/12 09:50:18;;;;;;;0.40;0.40;;;17.40;99.90;;;;;;5030785;28;20202;-70
2022/09/12 09:53:12;;;;;;;0.40;0.40;;;17.50;99.90;;;;;;5030916;28;20222;-70
2022/09/12 09:56:03;;;;;;;0.40;0.40;;;17.50;99.90;;;;;;5030689;28;20237;-69
2022/09/12 09:58:51;;;;;;;0.40;0.40;;;17.50;99.90;;;;;;5027267;28;20205;-69
2022/09/12 10:01:46;;;;;;;0.40;0.40;;;17.70;99.90;;;;;;5020677;28;20207;-69
2022/09/12 10:04:39;;;;;;;0.40;0.40;;;17.70;99.90;;;;;;5020917;28;20357;-68
2022/09/12 10:07:28;;;;;;;0.73;0.73;;;17.80;99.90;;;;;;5026367;28;20221;-68
2022/09/12 10:10:21;;;;;;;0.40;0.40;;;17.80;99.90;;;;;;5025667;28;20195;-68
2022/09/12 10:13:24;;;;;;;0.68;0.68;;;17.90;99.90;;;;;;5014897;28;20309;-68
2022/09/12 10:16:21;;;;;;;3.35;3.15;;;18.00;99.90;;;;;;5030388;28;20214;-66
2022/09/12 10:19:21;;;;;;;0.40;0.40;;;18.40;99.90;;;;;;5037940;28;20204;-71
2022/09/12 10:22:17;;;;;;;0.40;0.40;;;18.70;99.90;;;;;;5030106;28;20208;-66
2022/09/12 10:25:12;;;;;;;0.40;0.40;;;18.70;99.90;;;;;;5031367;28;20210;-70
2022/09/12 10:28:01;;;;;;;0.40;0.40;;;18.80;99.90;;;;;;5031004;28;20285;-68
2022/09/12 10:30:52;;;;;;;3.03;0.73;;;19.00;99.90;;;;;;5029133;28;20209;-70
2022/09/12 10:33:43;;;;;;;0.40;0.40;;;19.10;99.90;;;;;;5031229;28;20226;-69
2022/09/12 10:36:37;;;;;;;0.40;0.40;;;19.10;99.90;;;;;;5021590;28;20197;-69
2022/09/12 10:39:27;;;;;;;0.40;0.40;;;19.10;99.90;;;;;;5016181;28;20199;-70
2022/09/12 10:42:15;;;;;;;0.40;0.40;;;19.10;99.90;;;;;;5024724;28;20229;-68
2022/09/12 10:45:20;;;;;;;0.50;0.50;;;18.90;99.90;;;;;;5026463;28;20206;-69
2022/09/12 10:48:26;;;;;;;0.40;0.40;;;18.80;99.90;;;;;;5032013;28;20217;-69
2022/09/12 10:51:27;;;;;;;0.40;0.40;;;18.80;99.90;;;;;;5033394;28;20567;-71
2022/09/12 10:54:18;;;;;;;0.40;0.40;;;19.00;99.90;;;;;;5027626;28;20279;-67
2022/09/12 10:57:30;;;;;;;0.40;0.40;;;19.30;99.90;;;;;;5027792;28;20278;-67
2022/09/12 11:00:26;;;;;;;0.40;0.40;;;19.70;99.90;;;;;;5024487;28;20836;-65
2022/09/12 11:03:23;;;;;;;0.40;0.40;;;20.00;99.90;;;;;;5026294;28;20305;-66
2022/09/12 11:06:20;;;;;;;0.50;0.50;;;20.10;99.90;;;;;;5015165;28;20583;-67
2022/09/12 11:09:19;;;;;;;0.40;0.40;;;19.90;99.90;;;;;;5031553;28;20228;-66
2022/09/12 11:12:18;;;;;;;0.40;0.40;;;19.70;99.90;;;;;;5022343;28;20202;-68
2022/09/12 11:15:24;;;;;;;0.40;0.40;;;19.80;99.90;;;;;;5028108;28;20689;-67
2022/09/12 11:18:30;;;;;;;1.25;0.70;;;20.00;99.90;;;;;;5030303;28;20204;-66
2022/09/12 11:21:31;;;;;;;1.38;1.00;;;20.20;99.90;;;;;;5053865;28;20205;-67
2022/09/12 11:24:48;;;;;;;0.40;0.40;;;20.40;99.90;;;;;;5016564;28;20232;-66
2022/09/12 11:27:50;;;;;;;0.40;0.40;;;20.50;99.90;;;;;;5033821;28;20260;-66
2022/09/12 11:30:49;;;;;;;1.45;1.45;;;20.60;99.90;;;;;;5034899;28;20204;-66
2022/09/12 11:33:42;;;;;;;0.50;0.50;;;20.50;99.90;;;;;;5031765;28;20692;-66
2022/09/12 11:36:37;;;;;;;0.60;0.60;;;20.40;99.90;;;;;;5026143;28;20196;-67
2022/09/12 11:39:34;;;;;;;0.40;0.40;;;20.50;99.90;;;;;;5021444;28;20191;-66
2022/09/12 11:42:29;;;;;;;0.40;0.40;;;20.50;99.90;;;;;;5025560;28;20265;-66
2022/09/12 11:45:26;;;;;;;0.40;0.40;;;20.60;99.90;;;;;;5017888;28;20284;-65
2022/09/12 11:48:32;;;;;;;0.40;0.40;;;20.40;99.90;;;;;;5022288;28;20202;-67
2022/09/12 11:51:26;;;;;;;0.40;0.40;;;20.30;99.90;;;;;;5052674;28;20200;-66
2022/09/12 11:54:21;;;;;;;0.40;0.40;;;20.40;99.90;;;;;;5052875;28;20335;-67
2022/09/12 11:57:16;;;;;;;0.40;0.40;;;20.50;99.90;;;;;;5053302;28;20205;-65
2022/09/12 12:00:07;;;;;;;0.40;0.40;;;20.70;99.90;;;;;;5054512;28;20204;-65
2022/09/12 12:03:04;;;;;;;0.40;0.40;;;20.80;99.90;;;;;;5054535;28;20225;-66
2022/09/12 12:05:57;;;;;;;0.40;0.40;;;20.80;99.90;;;;;;5028350;28;20581;-65
2022/09/12 12:08:49;;;;;;;0.40;0.40;;;21.10;99.90;;;;;;5025243;28;20727;-67
2022/09/12 12:11:41;;;;;;;0.40;0.40;;;21.30;99.90;;;;;;5025710;28;20194;-67
2022/09/12 12:14:35;;;;;;;0.40;0.40;;;21.50;99.90;;;;;;5027044;28;20220;-66
2022/09/12 12:17:25;;;;;;;0.40;0.40;;;21.60;99.90;;;;;;5025962;28;20232;-66
2022/09/12 12:20:18;;;;;;;0.40;0.40;;;21.60;99.90;;;;;;5025741;28;20274;-66
2022/09/12 12:23:06;;;;;;;0.40;0.40;;;21.60;99.90;;;;;;5027072;28;20218;-66
2022/09/12 12:25:57;;;;;;;0.40;0.40;;;21.70;99.90;;;;;;5024186;28;20202;-66
2022/09/12 12:29:01;;;;;;;0.40;0.40;;;21.80;99.90;;;;;;5023603;28;20202;-66
2022/09/12 12:32:23;;;;;;;0.40;0.40;;;21.50;99.90;;;;;;5025985;28;20287;-66
2022/09/12 12:35:41;;;;;;;0.40;0.40;;;21.60;99.90;;;;;;5025682;28;20692;-66
2022/09/12 12:38:30;;;;;;;0.40;0.40;;;22.00;99.90;;;;;;5027588;28;20194;-65
2022/09/12 12:41:43;;;;;;;0.50;0.50;;;22.50;99.90;;;;;;5023134;28;20278;-65
2022/09/12 12:44:48;;;;;;;0.40;0.40;;;22.90;99.90;;;;;;5024670;28;20762;-65
2022/09/12 12:47:42;;;;;;;0.40;0.40;;;22.90;99.90;;;;;;5028341;28;20204;-65
2022/09/12 12:50:31;;;;;;;0.40;0.40;;;22.70;99.90;;;;;;5033801;28;20228;-65
2022/09/12 12:53:24;;;;;;;0.40;0.40;;;22.70;99.90;;;;;;5027905;28;20274;-66
2022/09/12 12:56:28;;;;;;;0.40;0.40;;;23.00;99.90;;;;;;5023025;28;20195;-66
2022/09/12 12:59:20;;;;;;;0.50;0.50;;;23.10;99.90;;;;;;5022906;28;20190;-65
2022/09/12 13:02:21;;;;;;;0.40;0.40;;;23.30;99.90;;;;;;5024107;28;20198;-65
2022/09/12 13:05:19;;;;;;;0.40;0.40;;;23.30;99.90;;;;;;5022182;28;20684;-65
2022/09/12 13:08:10;;;;;;;0.40;0.40;;;23.50;99.90;;;;;;5025007;28;20199;-66
2022/09/12 13:11:02;;;;;;;0.40;0.40;;;23.70;99.90;;;;;;5022660;28;20214;-66
2022/09/12 13:13:57;;;;;;;0.40;0.40;;;23.80;99.90;;;;;;5024029;28;20222;-66
2022/09/12 13:16:54;;;;;;;0.40;0.40;;;24.00;99.90;;;;;;5025768;28;20230;-66
2022/09/12 13:19:43;;;;;;;0.40;0.40;;;24.60;99.90;;;;;;5024168;28;20199;-66
2022/09/12 13:22:40;;;;;;;0.40;0.40;;;25.10;99.90;;;;;;5022098;28;20593;-67
2022/09/12 13:25:30;;;;;;;0.40;0.40;;;25.50;99.90;;;;;;5023803;28;20197;-66
2022/09/12 13:28:19;;;;;;;1.38;1.38;;;25.50;99.90;;;;;;5022545;28;20578;-67
2022/09/12 13:31:15;;;;;;;0.40;0.40;;;25.70;99.90;;;;;;5023912;28;20222;-67
2022/09/12 13:34:06;;;;;;;0.40;0.40;;;25.10;99.90;;;;;;5024463;28;20356;-67
2022/09/12 13:37:14;;;;;;;0.40;0.40;;;24.80;99.90;;;;;;5022743;28;20206;-67
2022/09/12 13:40:20;;;;;;;0.40;0.40;;;24.70;99.90;;;;;;5023281;28;20202;-67
2022/09/12 13:43:13;;;;;;;0.40;0.40;;;24.70;99.90;;;;;;5021539;28;20214;-67
2022/09/12 13:46:03;;;;;;;0.40;0.40;;;24.90;99.90;;;;;;5024057;28;20294;-67
2022/09/12 13:48:51;;;;;;;0.40;0.40;;;25.00;99.90;;;;;;5021161;28;20202;-67
2022/09/12 13:51:39;;;;;;;0.40;0.40;;;25.40;99.90;;;;;;5022374;28;20210;-66
2022/09/12 13:54:27;;;;;;;0.40;0.40;;;25.30;99.90;;;;;;5013540;28;20226;-66
2022/09/12 13:57:30;;;;;;;0.40;0.40;;;25.30;99.90;;;;;;5020904;28;20233;-66
2022/09/12 14:00:21;;;;;;;0.40;0.40;;;25.30;99.90;;;;;;5020953;28;20245;-66
2022/09/12 14:06:43;;;;;;;0.68;0.68;;;25.00;99.90;;;;;;5020798;28;20676;-66
2022/09/12 14:09:37;;;;;;;0.52;0.50;;;24.70;99.90;;;;;;5022019;28;20199;-65
2022/09/12 14:12:29;;;;;;;0.40;0.40;;;23.90;99.90;;;;;;5022439;28;20697;-66
2022/09/12 14:15:21;;;;;;;0.40;0.40;;;23.80;99.90;;;;;;5022999;28;20202;-66
2022/09/12 14:18:22;;;;;;;0.40;0.40;;;23.70;99.90;;;;;;5027184;28;20206;-66
2022/09/12 14:21:21;;;;;;;0.40;0.40;;;23.60;99.90;;;;;;5023233;28;20197;-67
2022/09/12 14:24:12;;;;;;;0.60;0.60;;;23.60;99.90;;;;;;5016746;28;20219;-64
2022/09/12 14:27:00;;;;;;;0.40;0.40;;;23.70;99.90;;;;;;5018237;28;20202;-65
2022/09/12 14:29:53;;;;;;;0.40;0.40;;;23.70;99.90;;;;;;5016112;28;20213;-65
2022/09/12 14:32:41;;;;;;;0.40;0.40;;;23.50;99.90;;;;;;5017051;28;20229;-66
2022/09/12 14:35:29;;;;;;;0.40;0.40;;;23.30;99.90;;;;;;5020475;28;20194;-64
2022/09/12 14:38:24;;;;;;;0.40;0.40;;;23.20;99.90;;;;;;5027070;28;20205;-67
2022/09/12 14:41:20;;;;;;;0.40;0.40;;;23.00;99.90;;;;;;5026447;28;20234;-66
2022/09/12 14:44:16;;;;;;;0.40;0.40;;;22.90;99.90;;;;;;5025937;28;20218;-66
2022/09/12 14:47:14;;;;;;;0.40;0.40;;;22.90;99.90;;;;;;5024133;28;20199;-66
2022/09/12 14:50:03;;;;;;;0.40;0.40;;;22.70;99.90;;;;;;5025315;28;20213;-65
2022/09/12 14:53:05;;;;;;;0.40;0.40;;;22.70;99.90;;;;;;5025819;28;20277;-65
2022/09/12 14:56:06;;;;;;;0.40;0.40;;;22.60;99.90;;;;;;5024826;28;20608;-65
2022/09/12 14:59:26;;;;;;;0.40;0.40;;;22.40;99.90;;;;;;5027368;28;20233;-65
2022/09/12 15:02:32;;;;;;;0.40;0.40;;;22.20;99.90;;;;;;5025084;28;20195;-65
2022/09/12 15:05:26;;;;;;;0.40;0.40;;;22.20;99.90;;;;;;5031614;28;20222;-67